Details From EGHI - Southampton
To LFOT - Tours Val De Loire Ab
Flight Number -
Tags Generated
Created
Modified
Stats Distance 227 nm / 420 km
Max Altitude 0 ft / 0 m
Waypoints 3
Social Downloads 0
Likes 0
Share VATSIM

Download

Looking for another format? Having issues loading an existing format? Contact us
Advertisement - Login to hide

Notes

Generated

Route

EGHI DEVRO LFOT

ID Type Via Altitude Latitude Longitude Leg Dist Tot Dist Heading (true) Name
O EGHI APT - 0 ft / 0 m 50.94295˚ -1.36088˚ - 0 nm - -
DEVRO FIX - 0 ft / 0 m 47.49556˚ 0.73861˚ 222 nm 222 nm 158° / 159° -
O LFOT APT - 0 ft / 0 m 47.42722˚ 0.72658˚ 4 nm 226 nm 187° / 187° Tours Val De Loire AB

Altitude Profile

Advertisement - Login to hide

Weather


0- 5 10 15 20 25 30 35+ Temperature / ° C

Clouds and Precipitation
Forecast for 2018-05-25 12:00 UTC. Updated 22 minutes ago

Ground ~20,000 ft ~40,000 ft Winds

EGHI

Details ICAO EGHI (SOU)
Name Southampton
Region United Kingdom
Timezone Europe/London (UTC+1.0)
Stats Elevation 44 ft / 13 m (AMSL)
Location 50.950255° -1.356806°
Runways 1
Magnetic Variation 0.748° W

METAR

EGHI 250920Z VRB03KT 9000 BKN011 14/12 Q1018

Decode

TAF

Not found

Departure Runways

ID Width Length Bearing (true) Bearing (mag) Surface Threshold Offset Overrun Length
02 121 ft / 37 m 5,650 ft / 1,722 m 19.33° 20.08° Asphalt 240 ft / 73 m 0 ft / 0 m
20 121 ft / 37 m 5,650 ft / 1,722 m 199.34° 200.09° Asphalt 144 ft / 44 m 0 ft / 0 m

LFOT

Details ICAO LFOT (TUF)
Name Tours Val De Loire AB
Region France
Timezone Europe/Paris (UTC+2.0)
Stats Elevation 356 ft / 109 m (AMSL)
Location 47.432974° 0.728402°
Runways 2
Magnetic Variation 0.250° E

METAR

LFOT 250930Z AUTO VRB03KT 9999 ///CB 22/16 Q1016 TEMPO VRB15G30KT 2000 TSGR NSC

Decode

TAF

TAF LFOT 250500Z 2506/2606 04003KT CAVOK TEMPO 2511/2519 SCT050TCU PROB30 TEMPO 2511/2519 VRB15G30KT 2000 TSGR SCT040CB PROB30 TEMPO 2519/2601 TSRA SCT090CB

Decode

Destination Runways

ID Width Length Bearing (true) Bearing (mag) Surface Threshold Offset Overrun Length
02 148 ft / 45 m 7,891 ft / 2,405 m 15.22° 14.97° Concrete 0 ft / 0 m 968 ft / 295 m
02R 197 ft / 60 m 4,925 ft / 1,501 m 15.24° 14.99° Grass 0 ft / 0 m 0 ft / 0 m
20 148 ft / 45 m 7,891 ft / 2,405 m 195.22° 194.97° Concrete 0 ft / 0 m 393 ft / 120 m
20L 197 ft / 60 m 4,925 ft / 1,501 m 195.24° 194.99° Grass 0 ft / 0 m 0 ft / 0 m

Approach Navaids

Runway Type Ident Frequency Range Bearing (true) Bearing (mag) Slope Elevation
20 Localiser TS 110.55 MHz 18 nm / 33 km 195.21° 194.96° - 341 ft / 104 m (AMSL)
20 Glidescope TS 110.55 MHz 10 nm / 19 km 195.22° 194.97° 3.00° 341 ft / 104 m (AMSL)
20 DME TS 110.55 MHz 18 nm / 33 km - - - 408 ft / 124 m (AMSL)